WetterOnline ( http://www.wetteronline.de )

Wetter aktuell Hohenpeißenberg

Aktuelles Wetter: Hohenpeißenberg (986m)

6-stündlich | Neueste Meldungen
Ortszeit Temperatur Wetter
Mi, 23.01. 1:00 -8.0° C Nebel
Di, 22.01. 19:00 -6.9° C Nebel
Di, 22.01. 13:00 -4.8° C bedeckt
Di, 22.01. 7:00 -7.6° C Nebel
Di, 22.01. 1:00 -5.8° C Nebel
Mo, 21.01. 19:00 -5.0° C Nebel
Mo, 21.01. 13:00 -3.8° C bedeckt
Mo, 21.01. 7:00 -4.6° C bedeckt
Ortszeit Temperatur Wetter
Mi, 23.01. 2:30 -8.7° C Nebel
Mi, 23.01. 2:20 -8.7° C Nebel
Mi, 23.01. 2:10 -8.6° C bedeckt
Mi, 23.01. 2:00 -8.4° C Nebel
Mi, 23.01. 1:50 -8.4° C Nebel
Mi, 23.01. 1:40 -8.2° C Nebel
Mi, 23.01. 1:30 -8.1° C Nebel
Mi, 23.01. 1:00 -8.0° C Nebel
Mi, 23.01. 0:30 -8.0° C Nebel
Mi, 23.01. 0:00 -7.9° C Nebel
Di, 22.01. 23:30 -7.8° C Nebel
Ortszeit Relative Feuchte Sichtweite
Mi, 23.01. 1:00 95% 100 m
Di, 22.01. 19:00 97% 0.4 km
Di, 22.01. 13:00 88% 3.6 km
Di, 22.01. 7:00 98% 100 m
Di, 22.01. 1:00 98% <100 m
Mo, 21.01. 19:00 98% 0.4 km
Mo, 21.01. 13:00 78% 26 km
Mo, 21.01. 7:00 80% 30 km
Ortszeit Relative Feuchte Sichtweite
Mi, 23.01. 2:30 95% 0.2 km
Mi, 23.01. 2:20 95% -
Mi, 23.01. 2:10 94% -
Mi, 23.01. 2:00 95% 100 m
Mi, 23.01. 1:50 95% -
Mi, 23.01. 1:40 95% -
Mi, 23.01. 1:30 95% 100 m
Mi, 23.01. 1:00 95% 100 m
Mi, 23.01. 0:30 97% 0.2 km
Mi, 23.01. 0:00 95% 100 m
Di, 22.01. 23:30 95% <100 m
Ortszeit Niederschlagsmenge Niederschlagsart
Mi, 23.01. 1:00 0.0 l/m2 in 6 Std. -
Di, 22.01. 19:00 0.0 l/m2 in 12 Std. -
Di, 22.01. 13:00 0.0 l/m2 in 6 Std. -
Di, 22.01. 7:00 0.0 l/m2 in 12 Std. -
Di, 22.01. 1:00 0.0 l/m2 in 6 Std. -
Mo, 21.01. 19:00 0.1 l/m2 in 12 Std. -
Mo, 21.01. 13:00 0.1 l/m2 in 6 Std. Schnee
Mo, 21.01. 7:00 0.0 l/m2 in 12 Std. -
Ortszeit Niederschlagsmenge Niederschlagsart
Mi, 23.01. 2:30 0.0 l/m2 in 1 Std. -
Mi, 23.01. 2:20 keine Meldung -
Mi, 23.01. 2:10 keine Meldung -
Mi, 23.01. 2:00 0.0 l/m2 in 1 Std. -
Mi, 23.01. 1:50 keine Meldung -
Mi, 23.01. 1:40 keine Meldung -
Mi, 23.01. 1:30 0.0 l/m2 in 1 Std. -
Mi, 23.01. 1:00 0.0 l/m2 in 1 Std. -
Mi, 23.01. 0:30 0.0 l/m2 in 1 Std. -
Mi, 23.01. 0:00 0.0 l/m2 in 1 Std. -
Di, 22.01. 23:30 0.0 l/m2 in 1 Std. -
Ortszeit Stärke Spitze Richtung
km/h Bft. km/h Grad Sektor
Mi, 23.01. 1:00 4 1 14 220° SW
Di, 22.01. 19:00 11 2 22 60° NO
Di, 22.01. 13:00 7 2 15 170° S
Di, 22.01. 7:00 2 1 17 100° O
Di, 22.01. 1:00 4 1 11 350° N
Mo, 21.01. 19:00 6 1 9 180° S
Mo, 21.01. 13:00 2 1 15 200° S
Mo, 21.01. 7:00 11 2 14 110° O
Ortszeit Stärke Spitze Richtung
km/h Bft. km/h Grad Sektor
Mi, 23.01. 2:30 0 0 4 - -
Mi, 23.01. 2:20 0 0 - - -
Mi, 23.01. 2:10 0 0 - 220° SW
Mi, 23.01. 2:00 2 1 7 310° NW
Mi, 23.01. 1:50 2 1 - 310° NW
Mi, 23.01. 1:40 2 1 - 240° SW
Mi, 23.01. 1:30 4 1 7 350° N
Mi, 23.01. 1:00 4 1 7 220° SW
Mi, 23.01. 0:30 0 0 7 - -
Mi, 23.01. 0:00 2 1 7 140° SO
Di, 22.01. 23:30 4 1 7 180° S
Ortszeit Untergrenze Bedeckung Gattung
total tief tief mittel hoch
Mi, 23.01. 1:00 <30 m 8/8 0/8 - - -
Di, 22.01. 19:00 <30 m 8/8 0/8 - - -
Di, 22.01. 13:00 30 m 8/8 - - - -
Di, 22.01. 7:00 <30 m 8/8 0/8 - - -
Di, 22.01. 1:00 <30 m 8/8 0/8 - - -
Mo, 21.01. 19:00 <30 m 8/8 0/8 - - -
Mo, 21.01. 13:00 1170 m 8/8 8/8 - - -
Mo, 21.01. 7:00 1140 m 8/8 8/8 - - -
Ortszeit Bedeckungsgrad in Achtel und Wolkenuntergrenze
Mi, 23.01. 2:30 8(<30m)
Mi, 23.01. 2:20 8(<30m)
Mi, 23.01. 2:10 8(<30m)
Mi, 23.01. 2:00 8(<30m)
Mi, 23.01. 1:50 8(<30m)
Mi, 23.01. 1:40 8(<30m)
Mi, 23.01. 1:30 8(<30m)
Mi, 23.01. 1:00 8(<30m)
Mi, 23.01. 0:30 8(<30m)
Mi, 23.01. 0:00 8(<30m)
Di, 22.01. 23:30 8(<30m)
Ortszeit Stationsdruck (hPa) Tendenz (hPa in 3 Std.)
Mi, 23.01. 1:00 886 - 1,5
Di, 22.01. 19:00 889 - 2,0
Di, 22.01. 13:00 894 - 2,1
Di, 22.01. 7:00 897 - 1,4
Di, 22.01. 1:00 901 - 0,5
Mo, 21.01. 19:00 902 - 0,1
Mo, 21.01. 13:00 902 - 0,2
Mo, 21.01. 7:00 902 + 0,3
Ortszeit Stationsdruck (hPa) Tendenz (hPa in 3 Std.)
Mi, 23.01. 2:30 886 - 1,6
Mi, 23.01. 2:20 886 keine Meldung
Mi, 23.01. 2:10 886 keine Meldung
Mi, 23.01. 2:00 886 - 1,5
Mi, 23.01. 1:50 886 keine Meldung
Mi, 23.01. 1:40 886 keine Meldung
Mi, 23.01. 1:30 886 - 1,5
Mi, 23.01. 1:00 886 - 1,5
Mi, 23.01. 0:30 887 - 1,6
Mi, 23.01. 0:00 887 - 1,5
Di, 22.01. 23:30 887 - 1,5
Ortszeit Schneehöhe (cm)
Mi, 23.01. 1:00 54
Di, 22.01. 19:00 54
Di, 22.01. 13:00 54
Di, 22.01. 7:00 54
Di, 22.01. 1:00 55
Mo, 21.01. 19:00 55
Mo, 21.01. 13:00 55
Mo, 21.01. 7:00 56
Ortszeit Schneehöhe (cm)
Mi, 23.01. 2:30 54
Mi, 23.01. 2:20 54
Mi, 23.01. 2:10 54
Mi, 23.01. 2:00 54
Mi, 23.01. 1:50 54
Mi, 23.01. 1:40 54
Mi, 23.01. 1:30 54
Mi, 23.01. 1:00 54
Mi, 23.01. 0:30 54
Mi, 23.01. 0:00 54
Di, 22.01. 23:30 54
Link zu dieser Seite / Seite empfehlen

Das Wetter in ...